Ewtrford, Pennsylvania
Current Conditions -  °F | °C
As of 1:53 AM on Saturday 25 Oct 2014 (Local Time) from KAOO Reporting Station
Clear Clear  
Wind Chill: 47°   Ceiling: Unl
Heat Index: 49°   Visibility: 10mi
Dew Point: 38°   Wind: 5mph
Humidity: 66%   Direction: 240°WSW
Pressure: 29.98"   Gusts: NA
Location:  40.3617°N, 77.6745°W
Report Text: KAOO 250553Z AUTO 24004KT 10SM CLR 09/03 A2998 RMK AO2 SLP152 T00940033 10106 20067 56006
Loading
Personal Weather Stations






























Interactive Weather Map New forecast layout! Learn more

10-Day Weather Forecast

Advertisements
Track Severe Weather on mobile